Time;durP1;ratioP1;P1;durP2;ratioP2;P2;SDS_P1;SDS_P2;PMS_P1;PMS_P2;Temp;Humidity;BMP_temperature;BMP_pressure;BME280_temperature;BME280_humidity;BME280_pressure;Samples;Min_cycle;Max_cycle;Signal;HPM_P1;HPM_P2
2023/01/20 00:03:04;;;;;;;0.00;0.00;;;;;;;-145.06;100.00;53880.22;10484849;28;20025;-80
2023/01/20 00:08:05;;;;;;;0.08;0.08;;;;;;;-145.06;100.00;53864.03;10496162;28;20046;-78
2023/01/20 00:13:05;;;;;;;0.00;0.00;;;;;;;-145.06;100.00;53864.03;10484386;28;20028;-82
2023/01/20 00:18:05;;;;;;;0.00;0.00;;;;;;;-145.06;100.00;53910.63;10477783;28;20048;-79
2023/01/20 00:23:06;;;;;;;0.00;0.00;;;;;;;-145.06;100.00;53880.22;10483856;28;20123;-79
2023/01/20 00:28:06;;;;;;;0.00;0.00;;;;;;;-145.06;100.00;53902.50;10483245;28;20013;-80
2023/01/20 00:33:06;;;;;;;0.00;0.00;;;;;;;-145.06;100.00;53878.22;10482231;28;20706;-80
2023/01/20 00:38:06;;;;;;;0.10;0.10;;;;;;;-145.06;100.00;53904.53;10480469;28;20017;-80
2023/01/20 00:43:07;;;;;;;0.05;0.05;;;;;;;-145.06;100.00;53920.75;10462707;28;20450;-80
2023/01/20 00:48:07;;;;;;;0.00;0.00;;;;;;;-145.06;100.00;53906.56;10482407;28;20039;-79
2023/01/20 00:53:08;;;;;;;0.00;0.00;;;;;;;-145.06;100.00;53924.78;10485936;28;20025;-80
2023/01/20 00:58:08;;;;;;;0.00;0.00;;;;;;;-145.06;100.00;53922.75;10479367;28;20019;-79
2023/01/20 01:03:11;;;;;;;0.00;0.00;;;;;;;-145.06;100.00;53878.22;10482219;28;20052;-80
2023/01/20 01:08:11;;;;;;;0.10;0.10;;;;;;;-145.06;100.00;53874.16;10477270;28;20111;-79
2023/01/20 01:13:12;;;;;;;0.05;0.05;;;;;;;-145.06;100.00;53890.38;10485636;28;20539;-80
2023/01/20 01:18:12;;;;;;;0.00;0.00;;;;;;;-145.06;100.00;53872.13;10481810;28;20012;-80
2023/01/20 01:23:12;;;;;;;0.00;0.00;;;;;;;-145.06;100.00;53904.53;10482358;28;20036;-80
2023/01/20 01:28:13;;;;;;;0.00;0.00;;;;;;;-145.06;100.00;53892.38;10479356;28;20428;-78
2023/01/20 01:33:13;;;;;;;0.00;0.00;;;;;;;-145.06;100.00;53904.53;10474903;28;20253;-78
2023/01/20 01:38:13;;;;;;;0.00;0.00;;;;;;;-145.06;100.00;53910.63;10466604;28;20017;-80
2023/01/20 01:43:28;;;;;;;0.00;0.00;;;;;;;-145.06;100.00;53878.22;10482740;28;20032;-78
2023/01/20 01:48:32;;;;;;;0.00;0.00;;;;;;;-145.06;100.00;53864.03;10479557;28;20017;-78
2023/01/20 01:53:39;;;;;;;0.00;0.00;;;;;;;-145.06;100.00;53866.06;10483491;28;20025;-79
2023/01/20 01:58:45;;;;;;;0.00;0.00;;;;;;;-145.06;100.00;53916.69;10486810;28;20104;-78
2023/01/20 02:03:55;;;;;;;0.00;0.00;;;;;;;-145.06;100.00;53908.59;10476887;28;20491;-81
2023/01/20 02:08:55;;;;;;;0.00;0.00;;;;;;;-145.06;100.00;53898.47;10481812;28;20023;-81
2023/01/20 02:13:56;;;;;;;0.00;0.00;;;;;;;-145.06;100.00;53886.31;10476727;28;20353;-79
2023/01/20 02:19:02;;;;;;;0.00;0.00;;;;;;;-145.06;100.00;53949.09;10469756;28;20119;-81
2023/01/20 02:24:12;;;;;;;0.00;0.00;;;;;;;-145.06;100.00;53876.19;10480637;28;20032;-81
2023/01/20 02:29:34;;;;;;;0.00;0.00;;;;;;;-145.06;100.00;53902.50;10480784;28;20062;-79
2023/01/20 02:34:45;;;;;;;0.10;0.10;;;;;;;-145.06;100.00;53849.84;10474526;28;20043;-81
2023/01/20 02:40:26;;;;;;;0.10;0.10;;;;;;;-145.06;100.00;53888.34;10480941;28;20021;-80
2023/01/20 02:46:16;;;;;;;0.00;0.00;;;;;;;-145.06;100.00;53890.38;10476400;28;20444;-81
2023/01/20 02:51:23;;;;;;;0.00;0.00;;;;;;;-145.06;100.00;53898.47;10405963;28;20039;-80
2023/01/20 02:56:27;;;;;;;0.00;0.00;;;;;;;-145.06;100.00;53864.03;10461796;28;20035;-79
2023/01/20 03:01:38;;;;;;;0.00;0.00;;;;;;;-145.06;100.00;53898.47;10483749;28;20307;-78
2023/01/20 03:06:45;;;;;;;0.00;0.00;;;;;;;-145.06;100.00;53851.88;10480010;28;20029;-79
2023/01/20 03:11:54;;;;;;;0.00;0.00;;;;;;;-145.06;100.00;53845.81;10484840;28;20016;-79
2023/01/20 03:16:55;;;;;;;0.00;0.00;;;;;;;-145.06;100.00;53914.66;10480473;28;20455;-80
2023/01/20 03:21:56;;;;;;;0.00;0.00;;;;;;;-145.06;100.00;53896.44;10482240;28;20017;-80
2023/01/20 03:26:57;;;;;;;0.00;0.00;;;;;;;-145.06;100.00;53908.59;10479049;28;20028;-78
2023/01/20 03:31:59;;;;;;;0.00;0.00;;;;;;;-145.06;100.00;53902.50;10476914;28;20024;-77
2023/01/20 03:37:02;;;;;;;0.00;0.00;;;;;;;-145.06;100.00;53866.06;10479449;28;20030;-80
2023/01/20 03:42:28;;;;;;;0.00;0.00;;;;;;;-145.06;100.00;53896.44;10486173;28;20458;-81
2023/01/20 03:47:46;;;;;;;0.00;0.00;;;;;;;-145.06;100.00;53868.09;10465774;28;20021;-78
2023/01/20 03:53:15;;;;;;;0.00;0.00;;;;;;;-145.06;100.00;53872.13;10477720;28;20020;-79
2023/01/20 03:58:20;;;;;;;0.00;0.00;;;;;;;-145.06;100.00;53896.44;10480122;28;20020;-82
2023/01/20 04:03:26;;;;;;;0.00;0.00;;;;;;;-145.06;100.00;53926.81;10477762;28;20547;-78
2023/01/20 04:08:32;;;;;;;0.10;0.10;;;;;;;-145.06;100.00;53888.34;10478307;28;20028;-79
2023/01/20 04:13:33;;;;;;;0.00;0.00;;;;;;;-145.06;100.00;53821.50;10478533;28;20059;-80
2023/01/20 04:18:38;;;;;;;0.00;0.00;;;;;;;-145.06;100.00;53890.38;10478746;28;20067;-79
2023/01/20 04:23:45;;;;;;;0.00;0.00;;;;;;;-145.06;100.00;53900.50;10482159;28;20033;-81
2023/01/20 04:28:45;;;;;;;0.10;0.10;;;;;;;-145.06;100.00;53910.63;10482423;28;20028;-78
2023/01/20 04:33:45;;;;;;;0.00;0.00;;;;;;;-145.06;100.00;53904.53;10496494;28;20031;-81
2023/01/20 04:38:45;;;;;;;0.00;0.00;;;;;;;-145.06;100.00;53896.44;10494745;28;20024;-80
2023/01/20 04:43:46;;;;;;;0.10;0.10;;;;;;;-145.06;100.00;53862.00;10481754;28;20030;-79
2023/01/20 04:48:46;;;;;;;0.10;0.10;;;;;;;-145.06;100.00;53896.44;10482411;28;20107;-80
2023/01/20 04:53:46;;;;;;;0.00;0.00;;;;;;;-145.06;100.00;53906.56;10481299;28;20024;-78
2023/01/20 04:58:47;;;;;;;0.00;0.00;;;;;;;-145.06;100.00;53936.94;10461198;28;20982;-81
2023/01/20 05:03:47;;;;;;;0.00;0.00;;;;;;;-145.06;100.00;53890.38;10455868;28;20268;-79
2023/01/20 05:08:48;;;;;;;0.00;0.00;;;;;;;-145.06;100.00;53896.44;10472340;28;20342;-82
2023/01/20 05:13:48;;;;;;;0.00;0.00;;;;;;;-145.06;100.00;53906.56;10470503;28;20025;-82
2023/01/20 05:18:49;;;;;;;0.00;0.00;;;;;;;-145.06;100.00;53924.78;10471208;28;20044;-82
2023/01/20 05:23:53;;;;;;;0.00;0.00;;;;;;;-145.06;100.00;53953.13;10478376;22;20049;-80
2023/01/20 05:28:53;;;;;;;0.00;0.00;;;;;;;-145.06;100.00;53857.97;10456824;28;20391;-79
2023/01/20 05:33:53;;;;;;;0.00;0.00;;;;;;;-145.06;100.00;53908.59;10457046;28;20028;-79
2023/01/20 05:38:54;;;;;;;0.00;0.00;;;;;;;-145.06;100.00;53898.47;10488113;28;20017;-80
2023/01/20 05:43:54;;;;;;;0.00;0.00;;;;;;;-145.06;100.00;53900.50;10487083;28;20115;-80
2023/01/20 05:48:54;;;;;;;0.00;0.00;;;;;;;-145.06;100.00;53878.22;10479327;28;20459;-81
2023/01/20 05:53:55;;;;;;;0.00;0.00;;;;;;;-145.06;100.00;53878.22;10484621;28;20463;-80
2023/01/20 05:58:55;;;;;;;0.00;0.00;;;;;;;-145.06;100.00;53910.63;10487199;28;20272;-80
2023/01/20 06:03:55;;;;;;;0.00;0.00;;;;;;;-145.06;100.00;53949.09;10475513;28;20024;-81
2023/01/20 06:08:56;;;;;;;0.00;0.00;;;;;;;-145.06;100.00;53912.63;10470785;28;20107;-81
2023/01/20 06:13:56;;;;;;;0.03;0.03;;;;;;;-145.06;100.00;53926.81;10465893;28;20118;-81
2023/01/20 06:18:56;;;;;;;0.00;0.00;;;;;;;-145.06;100.00;53890.38;10481731;28;20015;-80
2023/01/20 06:23:57;;;;;;;0.00;0.00;;;;;;;-145.06;100.00;53902.50;10478149;28;20051;-81
2023/01/20 06:28:59;;;;;;;0.00;0.00;;;;;;;-145.06;100.00;53864.03;10481667;28;20467;-80
2023/01/20 06:33:59;;;;;;;0.00;0.00;;;;;;;-145.06;100.00;53884.28;10488397;28;20299;-80
2023/01/20 06:38:59;;;;;;;0.00;0.00;;;;;;;-145.06;100.00;53886.31;10473282;28;20539;-80
2023/01/20 06:44:00;;;;;;;0.00;0.00;;;;;;;-145.06;100.00;53870.09;10478546;28;20024;-78
2023/01/20 06:49:00;;;;;;;0.00;0.00;;;;;;;-145.06;100.00;53920.75;10476946;28;20013;-80
2023/01/20 06:54:00;;;;;;;0.00;0.00;;;;;;;-145.06;100.00;53884.28;10483311;28;20278;-81
2023/01/20 06:59:01;;;;;;;0.00;0.00;;;;;;;-145.06;100.00;53886.31;10489239;28;20413;-80
2023/01/20 07:04:01;;;;;;;0.00;0.00;;;;;;;-145.06;100.00;53914.66;10484411;28;20380;-80
2023/01/20 07:09:02;;;;;;;0.00;0.00;;;;;;;-145.06;100.00;53906.56;10472207;28;20021;-80
2023/01/20 07:14:03;;;;;;;0.00;0.00;;;;;;;-145.06;100.00;53888.34;10464969;28;20399;-79
2023/01/20 07:19:04;;;;;;;0.00;0.00;;;;;;;-145.06;100.00;53904.53;10465070;28;20120;-79
2023/01/20 07:24:04;;;;;;;0.10;0.10;;;;;;;-145.06;100.00;53926.81;10474253;28;20096;-79
2023/01/20 07:29:05;;;;;;;0.00;0.00;;;;;;;-145.06;100.00;53900.50;10468612;28;20021;-80
2023/01/20 07:34:05;;;;;;;0.00;0.00;;;;;;;-145.06;100.00;53922.75;10471156;28;20437;-81
2023/01/20 07:39:06;;;;;;;0.00;0.00;;;;;;;-145.06;100.00;53900.50;10476534;28;20191;-81
2023/01/20 07:44:06;;;;;;;0.00;0.00;;;;;;;-145.06;100.00;53898.47;10479302;28;20112;-81
2023/01/20 07:49:06;;;;;;;0.00;0.00;;;;;;;-145.06;100.00;53870.09;10470013;28;20651;-81
2023/01/20 07:54:10;;;;;;;0.05;0.05;;;;;;;-145.06;100.00;53892.38;10483400;28;20017;-80
2023/01/20 07:59:10;;;;;;;0.00;0.00;;;;;;;-145.06;100.00;53878.22;10474009;28;20021;-79
2023/01/20 08:04:11;;;;;;;0.00;0.00;;;;;;;-145.06;100.00;53864.03;10476306;28;20025;-79
2023/01/20 08:09:13;;;;;;;0.00;0.00;;;;;;;-145.06;100.00;53888.34;10484964;28;20023;-80
2023/01/20 08:14:13;;;;;;;0.00;0.00;;;;;;;-145.06;100.00;53894.41;10468869;28;20047;-80
2023/01/20 08:19:14;;;;;;;0.00;0.00;;;;;;;-145.06;100.00;53880.22;10475852;28;20547;-80
2023/01/20 08:24:14;;;;;;;0.00;0.00;;;;;;;-145.06;100.00;53902.50;10484191;28;20032;-79
2023/01/20 08:29:14;;;;;;;0.00;0.00;;;;;;;-145.06;100.00;53922.75;10486622;28;20267;-80
2023/01/20 08:34:17;;;;;;;0.10;0.10;;;;;;;-145.06;100.00;53886.31;10463405;28;20032;-80
2023/01/20 08:39:17;;;;;;;0.00;0.00;;;;;;;-145.06;100.00;53868.09;10483665;28;20074;-80
2023/01/20 08:44:19;;;;;;;0.08;0.08;;;;;;;-145.06;100.00;53898.47;10476334;28;20020;-80
2023/01/20 08:49:21;;;;;;;0.00;0.00;;;;;;;-145.06;100.00;53872.13;10477765;28;20024;-78
2023/01/20 08:54:22;;;;;;;0.00;0.00;;;;;;;-145.06;100.00;53878.22;10469143;28;20467;-80
2023/01/20 08:59:22;;;;;;;0.00;0.00;;;;;;;-145.06;100.00;53847.84;10475942;28;20020;-78
2023/01/20 09:04:22;;;;;;;0.00;0.00;;;;;;;-145.06;100.00;53914.66;10468111;28;20307;-80
2023/01/20 09:09:23;;;;;;;0.05;0.05;;;;;;;-145.06;100.00;53898.47;10476605;28;20020;-80
2023/01/20 09:14:24;;;;;;;0.00;0.00;;;;;;;-145.06;100.00;53851.88;10462903;28;20021;-80
2023/01/20 09:19:24;;;;;;;0.00;0.00;;;;;;;-145.06;100.00;53866.06;10474463;28;20013;-81
2023/01/20 09:24:24;;;;;;;0.00;0.00;;;;;;;-145.06;100.00;53876.19;10476880;28;20033;-80
2023/01/20 09:29:25;;;;;;;0.00;0.00;;;;;;;-145.06;100.00;53831.63;10476599;28;20017;-81
2023/01/20 09:34:28;;;;;;;0.00;0.00;;;;;;;-145.06;100.00;53884.28;10469497;28;20021;-81
2023/01/20 09:45:02;;;;;;;0.00;0.00;;;;;;;-145.06;100.00;53890.38;10468799;28;20433;-80
2023/01/20 09:55:53;;;;;;;0.00;0.00;;;;;;;-145.06;100.00;53894.41;10476113;28;20029;-80
2023/01/20 10:01:12;;;;;;;0.00;0.00;;;;;;;-145.06;100.00;53831.63;10468592;28;20115;-79
2023/01/20 10:06:23;;;;;;;0.00;0.00;;;;;;;-145.06;100.00;53857.97;10479895;28;20305;-81
2023/01/20 10:11:25;;;;;;;0.00;0.00;;;;;;;-145.06;100.00;53884.28;10475638;28;20529;-80
2023/01/20 10:16:32;;;;;;;0.00;0.00;;;;;;;-145.06;100.00;53886.31;10460936;28;20025;-81
2023/01/20 10:21:35;;;;;;;0.00;0.00;;;;;;;-145.06;100.00;53888.34;10465952;28;20044;-80
2023/01/20 10:27:06;;;;;;;0.00;0.00;;;;;;;-145.06;100.00;53845.81;10455680;28;20039;-80
2023/01/20 10:32:15;;;;;;;0.00;0.00;;;;;;;-145.06;100.00;53876.19;10456571;28;20039;-80
2023/01/20 10:37:16;;;;;;;0.00;0.00;;;;;;;-145.06;100.00;53853.91;10490511;28;20020;-81
2023/01/20 10:42:17;;;;;;;0.00;0.00;;;;;;;-145.06;100.00;53855.94;10473438;28;20017;-81
2023/01/20 10:47:42;;;;;;;0.00;0.00;;;;;;;-145.06;100.00;53868.09;10471660;28;20024;-79
2023/01/20 10:52:45;;;;;;;0.00;0.00;;;;;;;-145.06;100.00;53849.84;10468095;28;20044;-81
2023/01/20 10:58:01;;;;;;;0.00;0.00;;;;;;;-145.06;100.00;53886.31;10469694;28;20032;-82
2023/01/20 11:03:04;;;;;;;0.00;0.00;;;;;;;-145.06;100.00;53900.50;10476069;28;20025;-81
2023/01/20 11:08:27;;;;;;;0.00;0.00;;;;;;;-145.06;100.00;53866.06;10475913;28;20391;-79
2023/01/20 11:13:27;;;;;;;0.00;0.00;;;;;;;-145.06;100.00;53876.19;10457475;28;20021;-80
2023/01/20 11:18:30;;;;;;;0.00;0.00;;;;;;;-145.06;100.00;53831.63;10478374;28;20386;-79
2023/01/20 11:23:38;;;;;;;0.00;0.00;;;;;;;-145.06;100.00;53868.09;10494527;22;20032;-79
2023/01/20 11:28:57;;;;;;;0.00;0.00;;;;;;;-145.06;100.00;53837.72;10504684;28;20023;-79
2023/01/20 11:34:00;;;;;;;0.00;0.00;;;;;;;-145.06;100.00;53908.59;10498715;28;20403;-79
2023/01/20 11:39:00;;;;;;;0.00;0.00;;;;;;;-145.06;100.00;53892.38;10507249;28;20016;-79
2023/01/20 11:44:01;;;;;;;0.00;0.00;;;;;;;-145.06;100.00;53900.50;10509172;28;20475;-79
2023/01/20 11:49:12;;;;;;;0.00;0.00;;;;;;;-145.06;100.00;53892.38;10507890;28;20051;-77
2023/01/20 11:54:24;;;;;;;0.00;0.00;;;;;;;-145.06;100.00;53845.81;10494245;28;20029;-79
2023/01/20 11:59:28;;;;;;;0.00;0.00;;;;;;;-145.06;100.00;53833.66;10506335;28;20017;-79
2023/01/20 12:04:42;;;;;;;0.00;0.00;;;;;;;-145.06;100.00;53872.13;10507214;28;20025;-79
2023/01/20 12:09:47;;;;;;;0.00;0.00;;;;;;;-145.06;100.00;53868.09;10507719;28;20086;-79
2023/01/20 12:14:53;;;;;;;;;;;;;;;-145.06;100.00;53880.22;10502400;28;20036;-79
2023/01/20 12:20:21;;;;;;;0.00;0.00;;;;;;;-145.06;100.00;53866.06;10498048;28;19920;-78
2023/01/20 12:25:33;;;;;;;0.00;0.00;;;;;;;-145.06;100.00;53845.81;10491600;28;20534;-79
2023/01/20 12:30:42;;;;;;;0.00;0.00;;;;;;;-145.06;100.00;53827.59;10505607;28;20380;-78
2023/01/20 12:35:59;;;;;;;0.00;0.00;;;;;;;-145.06;100.00;53855.94;10507476;28;20017;-79
2023/01/20 12:41:06;;;;;;;0.00;0.00;;;;;;;-145.06;100.00;53839.72;10506895;28;20020;-79
2023/01/20 12:46:30;;;;;;;0.00;0.00;;;;;;;-145.06;100.00;53829.59;10506016;28;20021;-80
2023/01/20 12:51:52;;;;;;;0.00;0.00;;;;;;;-145.06;100.00;53892.38;10497575;28;20158;-79
2023/01/20 12:57:20;;;;;;;0.00;0.00;;;;;;;-145.06;100.00;53890.38;10494201;28;20262;-79
2023/01/20 13:02:58;;;;;;;0.00;0.00;;;;;;;-145.06;100.00;53853.91;10502346;28;20041;-79
2023/01/20 13:08:27;;;;;;;0.00;0.00;;;;;;;-145.06;100.00;53833.66;10497876;28;20082;-79
2023/01/20 13:13:58;;;;;;;0.00;0.00;;;;;;;-145.06;100.00;53864.03;10483618;28;20055;-80
2023/01/20 13:19:26;;;;;;;0.00;0.00;;;;;;;-145.06;100.00;53892.38;10496188;28;20290;-80
2023/01/20 13:24:30;;;;;;;0.00;0.00;;;;;;;-145.06;100.00;53849.84;10484603;28;20414;-80
2023/01/20 13:29:33;;;;;;;0.00;0.00;;;;;;;-145.06;100.00;53896.44;10507069;28;20025;-80
2023/01/20 13:34:34;;;;;;;0.00;0.00;;;;;;;-145.06;100.00;53886.31;10507361;28;20398;-80
2023/01/20 13:39:42;;;;;;;0.00;0.00;;;;;;;-145.06;100.00;53815.44;10503737;28;20021;-79
2023/01/20 13:44:42;;;;;;;0.00;0.00;;;;;;;-145.06;100.00;53892.38;10504973;28;20028;-80
2023/01/20 13:49:42;;;;;;;0.00;0.00;;;;;;;-145.06;100.00;53868.09;10500879;28;20017;-80
2023/01/20 13:54:44;;;;;;;0.00;0.00;;;;;;;-145.06;100.00;53819.47;10491647;28;20031;-80
2023/01/20 13:59:45;;;;;;;0.00;0.00;;;;;;;-145.06;100.00;53872.13;10500647;28;20033;-79
2023/01/20 14:04:46;;;;;;;0.00;0.00;;;;;;;-145.06;100.00;53864.03;10502955;28;20021;-80
2023/01/20 14:09:51;;;;;;;0.00;0.00;;;;;;;-145.06;100.00;53849.84;10498675;28;20507;-79
2023/01/20 14:14:52;;;;;;;;;;;;;;;-145.06;100.00;53884.28;10498124;28;20103;-80
2023/01/20 14:19:54;;;;;;;0.00;0.00;;;;;;;-145.06;100.00;53874.16;10485383;28;19916;-79
2023/01/20 14:24:59;;;;;;;0.00;0.00;;;;;;;-145.06;100.00;53851.88;10485854;28;20040;-79
2023/01/20 14:30:14;;;;;;;0.00;0.00;;;;;;;-145.06;100.00;53851.88;10500885;28;20349;-80
2023/01/20 14:35:32;;;;;;;0.00;0.00;;;;;;;-145.06;100.00;53855.94;10503674;28;20074;-79
2023/01/20 14:40:34;;;;;;;0.00;0.00;;;;;;;-145.06;100.00;53833.66;10503751;28;20013;-79
2023/01/20 14:45:35;;;;;;;0.00;0.00;;;;;;;-145.06;100.00;53872.13;10499832;28;20024;-79
2023/01/20 14:50:37;;;;;;;0.00;0.00;;;;;;;-145.06;100.00;53855.94;10497537;28;20456;-79
2023/01/20 14:55:44;;;;;;;0.13;0.10;;;;;;;-145.06;100.00;53847.84;10488232;28;20036;-79
2023/01/20 15:00:49;;;;;;;0.00;0.00;;;;;;;-145.06;100.00;53815.44;10502464;28;20502;-80
2023/01/20 15:05:57;;;;;;;0.00;0.00;;;;;;;-145.06;100.00;53884.28;10496076;28;20422;-79
2023/01/20 15:11:09;;;;;;;0.00;0.00;;;;;;;-145.06;100.00;53878.22;10497798;28;20020;-79
2023/01/20 15:16:12;;;;;;;0.00;0.00;;;;;;;-145.06;100.00;53872.13;10496459;28;20479;-78
2023/01/20 15:21:26;;;;;;;0.00;0.00;;;;;;;-145.06;100.00;53859.97;10495153;28;20025;-80
2023/01/20 15:26:29;;;;;;;0.00;0.00;;;;;;;-145.06;100.00;53853.91;10456731;28;20057;-78
2023/01/20 15:31:29;;;;;;;0.00;0.00;;;;;;;-145.06;100.00;53841.75;10462566;28;20700;-80
2023/01/20 15:36:35;;;;;;;0.00;0.00;;;;;;;-145.06;100.00;53886.31;10461822;28;20013;-80
2023/01/20 15:41:36;;;;;;;0.00;0.00;;;;;;;-145.06;100.00;53892.38;10459598;28;20017;-79
2023/01/20 15:46:39;;;;;;;0.00;0.00;;;;;;;-145.06;100.00;53866.06;10453713;28;20028;-79
2023/01/20 15:51:39;;;;;;;0.00;0.00;;;;;;;-145.06;100.00;53847.84;10451098;28;20032;-79
2023/01/20 15:56:41;;;;;;;0.00;0.00;;;;;;;-145.06;100.00;53851.88;10456531;28;20040;-79
2023/01/20 16:01:45;;;;;;;0.00;0.00;;;;;;;-145.06;100.00;53892.38;10456578;28;20059;-79
2023/01/20 16:06:46;;;;;;;0.00;0.00;;;;;;;-145.06;100.00;53815.44;10454785;28;20096;-80
2023/01/20 16:11:46;;;;;;;0.00;0.00;;;;;;;-145.06;100.00;53884.28;10457447;28;20052;-80
2023/01/20 16:16:46;;;;;;;0.00;0.00;;;;;;;-145.06;100.00;53896.44;10457799;28;20115;-80
2023/01/20 16:21:46;;;;;;;0.00;0.00;;;;;;;-145.06;100.00;53906.56;10460209;28;20311;-80
2023/01/20 16:26:47;;;;;;;0.00;0.00;;;;;;;-145.06;100.00;53843.78;10465362;28;20021;-81
2023/01/20 16:31:47;;;;;;;0.00;0.00;;;;;;;-145.06;100.00;53827.59;10467507;28;20083;-82
2023/01/20 16:36:47;;;;;;;0.00;0.00;;;;;;;-145.06;100.00;53866.06;10467239;28;20051;-79
2023/01/20 16:41:48;;;;;;;0.10;0.10;;;;;;;-145.06;100.00;53896.44;10464588;28;20035;-82
2023/01/20 16:46:48;;;;;;;0.00;0.00;;;;;;;-145.06;100.00;53880.22;10464670;28;20762;-80
2023/01/20 16:51:49;;;;;;;0.00;0.00;;;;;;;-145.06;100.00;53876.19;10465318;28;20017;-81
2023/01/20 16:56:49;;;;;;;0.00;0.00;;;;;;;-145.06;100.00;53853.91;10464842;28;20032;-81
2023/01/20 17:01:50;;;;;;;0.00;0.00;;;;;;;-145.06;100.00;53839.72;10465822;28;20131;-81
2023/01/20 17:06:51;;;;;;;0.00;0.00;;;;;;;-145.06;100.00;53859.97;10465347;28;20445;-80
2023/01/20 17:11:51;;;;;;;0.00;0.00;;;;;;;-145.06;100.00;53890.38;10466663;28;20480;-81
2023/01/20 17:16:53;;;;;;;0.05;0.05;;;;;;;-145.06;100.00;53898.47;10465836;28;20021;-79
2023/01/20 17:21:55;;;;;;;0.00;0.00;;;;;;;-145.06;100.00;53886.31;10464152;28;20040;-79
2023/01/20 17:26:55;;;;;;;0.00;0.00;;;;;;;-145.06;100.00;53882.25;10498035;22;20052;-81
2023/01/20 17:31:55;;;;;;;0.00;0.00;;;;;;;-145.06;100.00;53851.88;10492276;28;20366;-82
2023/01/20 17:36:56;;;;;;;0.00;0.00;;;;;;;-145.06;100.00;53888.34;10491366;28;20041;-81
2023/01/20 17:41:56;;;;;;;0.00;0.00;;;;;;;-145.06;100.00;53874.16;10491446;28;20017;-82
2023/01/20 17:46:56;;;;;;;0.00;0.00;;;;;;;-145.06;100.00;53868.09;10490290;28;20016;-82
2023/01/20 17:51:57;;;;;;;0.00;0.00;;;;;;;-145.06;100.00;53920.75;10484617;28;20618;-83
2023/01/20 17:56:57;;;;;;;0.00;0.00;;;;;;;-145.06;100.00;53868.09;10491296;28;20032;-82
2023/01/20 18:01:57;;;;;;;0.00;0.00;;;;;;;-145.06;100.00;53866.06;10489538;28;20029;-84
2023/01/20 18:06:58;;;;;;;0.00;0.00;;;;;;;-145.06;100.00;53839.72;10490678;28;20033;-82
2023/01/20 18:11:58;;;;;;;0.00;0.00;;;;;;;-145.06;100.00;53898.47;10490817;28;20334;-81
2023/01/20 18:16:59;;;;;;;0.00;0.00;;;;;;;-145.06;100.00;53878.22;10490459;28;20043;-85
2023/01/20 18:22:00;;;;;;;0.00;0.00;;;;;;;-145.06;100.00;53888.34;10480996;28;20033;-84
2023/01/20 18:27:01;;;;;;;0.10;0.10;;;;;;;-145.06;100.00;53924.78;10489915;28;20270;-85
2023/01/20 18:32:01;;;;;;;0.10;0.10;;;;;;;-145.06;100.00;53874.16;10490573;28;20023;-85
2023/01/20 18:37:02;;;;;;;0.00;0.00;;;;;;;-145.06;100.00;53843.78;10484365;28;20034;-83
2023/01/20 18:42:02;;;;;;;0.00;0.00;;;;;;;-145.06;100.00;53845.81;10490933;28;20012;-82
2023/01/20 18:47:03;;;;;;;0.10;0.10;;;;;;;-145.06;100.00;53874.16;10488452;28;20089;-84
2023/01/20 18:52:04;;;;;;;0.10;0.10;;;;;;;-145.06;100.00;53866.06;10479568;28;20001;-82
2023/01/20 18:57:04;;;;;;;0.00;0.00;;;;;;;-145.06;100.00;53835.69;10491411;28;20020;-83
2023/01/20 19:02:05;;;;;;;0.00;0.00;;;;;;;-145.06;100.00;53890.38;10492636;28;20067;-84
2023/01/20 19:07:05;;;;;;;0.00;0.00;;;;;;;-145.06;100.00;53884.28;10488712;28;20020;-84
2023/01/20 19:12:06;;;;;;;0.10;0.10;;;;;;;-145.06;100.00;53904.53;10489619;28;20021;-83
2023/01/20 19:17:07;;;;;;;0.00;0.00;;;;;;;-145.06;100.00;53896.44;10490938;28;20029;-83
2023/01/20 19:22:07;;;;;;;0.00;0.00;;;;;;;-145.06;100.00;53888.34;10485653;28;20048;-83
2023/01/20 19:27:07;;;;;;;0.00;0.00;;;;;;;-145.06;100.00;53896.44;10490020;28;20017;-83
2023/01/20 19:32:08;;;;;;;0.00;0.00;;;;;;;-145.06;100.00;53882.25;10489285;28;20025;-83
2023/01/20 19:37:08;;;;;;;0.08;0.08;;;;;;;-145.06;100.00;53868.09;10491356;28;20049;-83
2023/01/20 19:42:09;;;;;;;0.00;0.00;;;;;;;-145.06;100.00;53902.50;10488431;28;20701;-83
2023/01/20 19:47:09;;;;;;;0.00;0.00;;;;;;;-145.06;100.00;53886.31;10488688;28;20251;-84
2023/01/20 19:52:09;;;;;;;0.00;0.00;;;;;;;-145.06;100.00;53862.00;10482337;28;20013;-82
2023/01/20 19:57:10;;;;;;;0.00;0.00;;;;;;;-145.06;100.00;53888.34;10491564;28;20380;-83
2023/01/20 20:02:10;;;;;;;0.00;0.00;;;;;;;-145.06;100.00;53882.25;10497383;28;20032;-83
2023/01/20 20:07:10;;;;;;;0.10;0.10;;;;;;;-145.06;100.00;53819.47;10495235;28;20025;-84
2023/01/20 20:12:11;;;;;;;0.00;0.00;;;;;;;-145.06;100.00;53872.13;10495673;28;20096;-83
2023/01/20 20:17:11;;;;;;;0.00;0.00;;;;;;;-145.06;100.00;53888.34;10498048;28;20271;-82
2023/01/20 20:22:12;;;;;;;0.00;0.00;;;;;;;-145.06;100.00;53866.06;10491768;28;20086;-83
2023/01/20 20:27:12;;;;;;;0.00;0.00;;;;;;;-145.06;100.00;53855.94;10493814;28;20514;-82
2023/01/20 20:32:13;;;;;;;0.00;0.00;;;;;;;-145.06;100.00;53876.19;10494626;28;20021;-83
2023/01/20 20:37:13;;;;;;;0.00;0.00;;;;;;;-145.06;100.00;53898.47;10494683;28;20475;-84
2023/01/20 20:42:13;;;;;;;0.00;0.00;;;;;;;-145.06;100.00;53894.41;10496655;28;20032;-81
2023/01/20 20:47:13;;;;;;;0.00;0.00;;;;;;;-145.06;100.00;53878.22;10493575;28;20029;-82
2023/01/20 20:52:14;;;;;;;0.00;0.00;;;;;;;-145.06;100.00;53902.50;10477061;28;20299;-81
2023/01/20 20:57:14;;;;;;;0.00;0.00;;;;;;;-145.06;100.00;53859.97;10494576;28;20052;-81
2023/01/20 21:02:15;;;;;;;0.10;0.10;;;;;;;-145.06;100.00;53898.47;10492796;28;20275;-81
2023/01/20 21:07:15;;;;;;;0.00;0.00;;;;;;;-145.06;100.00;53896.44;10494329;28;20025;-82
2023/01/20 21:12:15;;;;;;;0.00;0.00;;;;;;;-145.06;100.00;53886.31;10494664;28;20031;-81
2023/01/20 21:17:16;;;;;;;0.00;0.00;;;;;;;-145.06;100.00;53878.22;10493593;28;20294;-82
2023/01/20 21:22:16;;;;;;;0.00;0.00;;;;;;;-145.06;100.00;53841.75;10481794;28;20044;-82
2023/01/20 21:27:16;;;;;;;0.00;0.00;;;;;;;-145.06;100.00;53886.31;10493932;28;20025;-81
2023/01/20 21:32:17;;;;;;;0.00;0.00;;;;;;;-145.06;100.00;53884.28;10496631;28;20393;-81
2023/01/20 21:37:18;;;;;;;0.00;0.00;;;;;;;-145.06;100.00;53900.50;10494145;28;20056;-77
2023/01/20 21:42:18;;;;;;;0.00;0.00;;;;;;;-145.06;100.00;53862.00;10471997;28;20428;-78
2023/01/20 21:47:19;;;;;;;0.00;0.00;;;;;;;-145.06;100.00;53902.50;10474142;28;20207;-79
2023/01/20 21:52:39;;;;;;;0.00;0.00;;;;;;;-145.06;100.00;53843.78;10467642;28;20376;-79
2023/01/20 21:57:40;;;;;;;0.00;0.00;;;;;;;-145.06;100.00;53870.09;10471406;28;20291;-78
2023/01/20 22:02:43;;;;;;;0.00;0.00;;;;;;;-145.06;100.00;53859.97;10473173;28;20013;-78
2023/01/20 22:07:46;;;;;;;0.00;0.00;;;;;;;-145.06;100.00;53892.38;10474100;28;20024;-78
2023/01/20 22:12:46;;;;;;;0.00;0.00;;;;;;;-145.06;100.00;53866.06;10474902;28;20017;-79
2023/01/20 22:17:47;;;;;;;0.00;0.00;;;;;;;-145.06;100.00;53864.03;10467246;28;20084;-78
2023/01/20 22:22:47;;;;;;;0.10;0.10;;;;;;;-145.06;100.00;53880.22;10460302;28;20033;-79
2023/01/20 22:27:47;;;;;;;0.00;0.00;;;;;;;-145.06;100.00;53876.19;10468849;28;20021;-78
2023/01/20 22:32:48;;;;;;;0.00;0.00;;;;;;;-145.06;100.00;53892.38;10470656;28;20072;-78
2023/01/20 22:37:49;;;;;;;0.00;0.00;;;;;;;-145.06;100.00;53932.88;10470436;28;20055;-78
2023/01/20 22:42:49;;;;;;;0.00;0.00;;;;;;;-145.06;100.00;53868.09;10470285;28;20051;-78
2023/01/20 22:47:49;;;;;;;0.00;0.00;;;;;;;-145.06;100.00;53876.19;10468749;28;20060;-78
2023/01/20 22:52:50;;;;;;;0.00;0.00;;;;;;;-145.06;100.00;53892.38;10464682;28;20096;-79
2023/01/20 22:57:50;;;;;;;0.00;0.00;;;;;;;-145.06;100.00;53902.50;10473132;28;20053;-79